Time;durP1;ratioP1;P1;durP2;ratioP2;P2;SDS_P1;SDS_P2;PMS_P1;PMS_P2;Temp;Humidity;BMP_temperature;BMP_pressure;BME280_temperature;BME280_humidity;BME280_pressure;Samples;Min_cycle;Max_cycle;Signal;HPM_P1;HPM_P2
2024/04/09 00:00:18;;;;;;;21.73;4.63;;;18.20;98.00;;;;;;5376228;26;20452;-68
2024/04/09 00:02:47;;;;;;;17.50;5.37;;;18.30;98.00;;;;;;5378326;26;20479;-68
2024/04/09 00:05:13;;;;;;;21.07;4.80;;;18.30;98.00;;;;;;5378080;26;20498;-68
2024/04/09 00:07:43;;;;;;;23.53;5.50;;;18.10;98.00;;;;;;5377943;26;20456;-68
2024/04/09 00:10:13;;;;;;;24.50;5.37;;;18.20;98.00;;;;;;5378078;26;20508;-68
2024/04/09 00:12:43;;;;;;;28.40;5.70;;;18.10;98.00;;;;;;5378329;26;20472;-68
2024/04/09 00:15:12;;;;;;;19.90;5.63;;;18.00;98.00;;;;;;5378173;26;20467;-68
2024/04/09 00:17:44;;;;;;;23.60;4.40;;;18.00;98.00;;;;;;5378413;26;20510;-68
2024/04/09 00:20:11;;;;;;;29.40;4.80;;;17.90;98.00;;;;;;5378381;26;20977;-68
2024/04/09 00:22:41;;;;;;;17.63;4.30;;;17.80;98.00;;;;;;5378134;26;20448;-68
2024/04/09 00:25:08;;;;;;;26.37;4.73;;;18.00;98.00;;;;;;5377940;26;20464;-67
2024/04/09 00:27:39;;;;;;;15.30;4.53;;;18.00;98.00;;;;;;5376251;26;20502;-67
2024/04/09 00:30:06;;;;;;;22.20;4.40;;;17.70;98.00;;;;;;5377848;26;20456;-68
2024/04/09 00:32:36;;;;;;;37.83;4.80;;;17.60;98.00;;;;;;5377667;26;20467;-68
2024/04/09 00:35:03;;;;;;;26.20;4.73;;;17.50;98.00;;;;;;5377760;26;20464;-68
2024/04/09 00:37:35;;;;;;;19.23;5.17;;;17.40;98.00;;;;;;5377303;26;20471;-68
2024/04/09 00:40:07;;;;;;;15.10;4.53;;;17.40;98.00;;;;;;5377402;26;20463;-68
2024/04/09 00:42:39;;;;;;;22.73;4.30;;;17.50;98.00;;;;;;5377769;26;20566;-68
2024/04/09 00:45:08;;;;;;;15.20;4.50;;;17.50;98.00;;;;;;5379930;26;20500;-67
2024/04/09 00:47:39;;;;;;;18.77;4.77;;;17.50;98.00;;;;;;5380968;26;20859;-67
2024/04/09 00:50:11;;;;;;;14.27;4.03;;;17.20;98.00;;;;;;5380826;26;20840;-68
2024/04/09 00:52:41;;;;;;;22.77;4.20;;;17.20;98.00;;;;;;5380896;26;20464;-68
2024/04/09 00:55:08;;;;;;;21.17;4.63;;;17.20;98.00;;;;;;5380621;26;20915;-67
2024/04/09 00:57:41;;;;;;;23.03;5.03;;;17.30;98.00;;;;;;5380846;26;20471;-68
2024/04/09 01:00:12;;;;;;;14.40;4.03;;;17.50;98.00;;;;;;5380791;26;21049;-67
2024/04/09 01:02:41;;;;;;;16.37;4.73;;;17.70;98.00;;;;;;5380339;26;20463;-68
2024/04/09 01:05:08;;;;;;;25.20;4.23;;;17.60;98.00;;;;;;5380382;26;20499;-67
2024/04/09 01:07:37;;;;;;;19.47;4.30;;;17.50;98.00;;;;;;5380620;26;21062;-67
2024/04/09 01:10:05;;;;;;;23.03;4.57;;;17.40;98.00;;;;;;5378711;26;20463;-68
2024/04/09 01:12:34;;;;;;;17.27;4.80;;;17.40;98.00;;;;;;5380483;26;20476;-67
2024/04/09 01:15:03;;;;;;;27.43;6.57;;;17.30;98.00;;;;;;5380165;26;20772;-68
2024/04/09 01:17:33;;;;;;;19.77;4.77;;;17.30;98.00;;;;;;5380571;26;20543;-68
2024/04/09 01:19:59;;;;;;;17.27;4.20;;;17.20;98.00;;;;;;5380716;26;20501;-68
2024/04/09 01:22:33;;;;;;;23.17;5.40;;;17.20;98.00;;;;;;5378681;26;20471;-67
2024/04/09 01:24:59;;;;;;;19.70;4.30;;;17.20;98.00;;;;;;5380038;26;20468;-67
2024/04/09 01:27:28;;;;;;;13.80;4.00;;;17.20;98.00;;;;;;5380232;26;20460;-67
2024/04/09 01:29:54;;;;;;;21.47;4.43;;;17.30;98.00;;;;;;5379208;26;20452;-67
2024/04/09 01:32:25;;;;;;;24.10;4.97;;;17.20;98.00;;;;;;5380633;26;20516;-67
2024/04/09 01:34:52;;;;;;;16.67;4.80;;;17.10;98.00;;;;;;5379953;26;20542;-67
2024/04/09 01:37:21;;;;;;;19.93;4.30;;;17.10;98.00;;;;;;5380433;26;20476;-67
2024/04/09 01:39:50;;;;;;;18.50;3.90;;;17.10;98.00;;;;;;5378620;26;20844;-67
2024/04/09 01:42:18;;;;;;;20.23;5.17;;;17.10;98.00;;;;;;5380055;26;20539;-67
2024/04/09 01:44:45;;;;;;;18.47;3.97;;;17.10;98.00;;;;;;5380402;26;21507;-67
2024/04/09 01:47:14;;;;;;;19.30;4.50;;;17.20;98.00;;;;;;5380195;26;20467;-67
2024/04/09 01:49:40;;;;;;;18.80;4.00;;;17.50;98.00;;;;;;5379606;26;20484;-67
2024/04/09 01:52:11;;;;;;;17.63;4.37;;;17.50;98.00;;;;;;5377852;26;20459;-67
2024/04/09 01:54:37;;;;;;;16.43;4.37;;;17.40;98.00;;;;;;5379439;26;20530;-67
2024/04/09 01:57:08;;;;;;;20.77;5.07;;;17.30;98.00;;;;;;5377666;26;20468;-68
2024/04/09 01:59:35;;;;;;;20.20;4.20;;;17.30;98.00;;;;;;5379979;26;20521;-67
2024/04/09 02:02:04;;;;;;;18.90;4.30;;;17.30;98.00;;;;;;5378117;26;20464;-67
2024/04/09 02:04:30;;;;;;;16.30;4.50;;;17.30;98.00;;;;;;5380128;26;21089;-67
2024/04/09 02:06:58;;;;;;;22.60;3.70;;;17.30;98.00;;;;;;5379993;26;20468;-67
2024/04/09 02:09:26;;;;;;;9.87;3.20;;;17.10;98.00;;;;;;5378803;26;20467;-67
2024/04/09 02:11:55;;;;;;;10.00;4.00;;;17.00;98.00;;;;;;5379833;26;20539;-67
2024/04/09 02:14:24;;;;;;;11.60;4.20;;;17.10;98.00;;;;;;5380316;26;20510;-67
2024/04/09 02:16:53;;;;;;;20.50;4.03;;;17.20;98.00;;;;;;5377667;26;20458;-67
2024/04/09 02:19:19;;;;;;;21.00;3.87;;;17.30;98.00;;;;;;5378567;26;20460;-67
2024/04/09 02:21:49;;;;;;;17.47;4.30;;;17.30;98.00;;;;;;5379439;26;20988;-67
2024/04/09 02:24:15;;;;;;;13.47;3.63;;;17.30;98.00;;;;;;5379601;26;20507;-67
2024/04/09 02:26:47;;;;;;;14.47;4.20;;;17.10;98.00;;;;;;5379864;26;20467;-68
2024/04/09 02:29:13;;;;;;;20.57;4.70;;;17.10;98.00;;;;;;5378129;26;20582;-67
2024/04/09 02:31:44;;;;;;;18.90;4.20;;;17.00;98.00;;;;;;5379553;26;20475;-67
2024/04/09 02:34:10;;;;;;;12.43;4.03;;;16.90;98.00;;;;;;5379812;26;20508;-67
2024/04/09 02:36:39;;;;;;;17.97;4.03;;;16.90;98.00;;;;;;5379419;26;20531;-67
2024/04/09 02:39:08;;;;;;;10.37;3.70;;;16.80;98.00;;;;;;5379689;26;20460;-67
2024/04/09 02:41:39;;;;;;;15.37;4.00;;;16.80;98.00;;;;;;5378981;26;20531;-67
2024/04/09 02:44:05;;;;;;;21.23;4.97;;;16.70;98.00;;;;;;5379308;26;20507;-67
2024/04/09 02:46:34;;;;;;;20.97;4.60;;;16.60;98.00;;;;;;5379002;26;20513;-67
2024/04/09 02:49:03;;;;;;;19.07;4.20;;;16.50;98.00;;;;;;5378971;26;20510;-67
2024/04/09 02:51:32;;;;;;;17.90;4.97;;;16.50;98.00;;;;;;5378687;26;20515;-67
2024/04/09 02:53:58;;;;;;;22.63;5.70;;;16.40;98.00;;;;;;5379252;26;20452;-67
2024/04/09 02:56:26;;;;;;;19.10;5.07;;;16.40;98.00;;;;;;5377214;26;20460;-67
2024/04/09 02:58:53;;;;;;;14.23;4.47;;;16.30;98.00;;;;;;5379474;26;20455;-67
2024/04/09 03:01:35;;;;;;;18.77;4.07;;;16.20;98.00;;;;;;5379263;26;20524;-67
2024/04/09 03:04:04;;;;;;;13.90;4.33;;;16.30;98.00;;;;;;5375854;26;20468;-67
2024/04/09 03:06:33;;;;;;;10.77;3.97;;;16.40;98.00;;;;;;5377565;26;20531;-67
2024/04/09 03:09:00;;;;;;;14.70;3.77;;;16.30;98.00;;;;;;5379012;26;20505;-67
2024/04/09 03:11:28;;;;;;;10.90;3.57;;;16.30;98.00;;;;;;5377473;26;20548;-67
2024/04/09 03:13:54;;;;;;;17.47;4.10;;;16.30;98.00;;;;;;5378525;26;20829;-67
2024/04/09 03:16:24;;;;;;;31.97;4.33;;;16.60;98.00;;;;;;5378785;26;21001;-67
2024/04/09 03:18:51;;;;;;;16.70;4.23;;;16.60;98.00;;;;;;5348544;26;20468;-67
2024/04/09 03:21:23;;;;;;;13.40;3.83;;;16.50;98.00;;;;;;5377538;26;20472;-67
2024/04/09 03:23:49;;;;;;;20.70;5.47;;;16.30;98.00;;;;;;5378959;26;20778;-67
2024/04/09 03:26:17;;;;;;;11.47;4.00;;;16.20;98.00;;;;;;5348082;26;20966;-67
2024/04/09 03:28:43;;;;;;;22.07;4.40;;;16.10;98.00;;;;;;5378957;26;20816;-67
2024/04/09 03:31:12;;;;;;;17.70;3.87;;;16.00;98.00;;;;;;5378723;26;20476;-67
2024/04/09 03:33:42;;;;;;;7.47;3.70;;;15.90;98.00;;;;;;5378630;26;21014;-67
2024/04/09 03:36:11;;;;;;;12.60;3.73;;;15.90;98.00;;;;;;5378237;26;20468;-67
2024/04/09 03:38:43;;;;;;;10.80;3.63;;;15.90;98.00;;;;;;5378714;26;20463;-67
2024/04/09 03:41:12;;;;;;;21.87;4.00;;;16.00;98.00;;;;;;5378412;26;20460;-67
2024/04/09 03:43:41;;;;;;;14.00;3.47;;;15.90;98.00;;;;;;5378395;26;20994;-67
2024/04/09 03:46:08;;;;;;;6.00;3.57;;;15.70;98.00;;;;;;5376629;26;20496;-67
2024/04/09 03:48:37;;;;;;;8.00;3.53;;;15.70;98.00;;;;;;5377797;26;20444;-67
2024/04/09 03:51:04;;;;;;;15.77;4.60;;;15.70;98.00;;;;;;5378497;26;20925;-68
2024/04/09 03:53:33;;;;;;;10.80;3.90;;;15.50;98.00;;;;;;5378617;26;20506;-67
2024/04/09 03:56:03;;;;;;;23.23;4.60;;;15.60;98.00;;;;;;5378412;26;20460;-67
2024/04/09 03:58:33;;;;;;;11.57;4.13;;;15.40;98.00;;;;;;5378684;26;20968;-67
2024/04/09 04:01:01;;;;;;;13.40;3.73;;;15.20;98.00;;;;;;5378203;26;20460;-67
2024/04/09 04:03:31;;;;;;;9.30;4.30;;;15.20;98.00;;;;;;5378442;26;20458;-67
2024/04/09 04:05:59;;;;;;;19.43;4.20;;;15.20;98.00;;;;;;5378083;26;20456;-67
2024/04/09 04:08:31;;;;;;;21.80;5.30;;;15.20;98.00;;;;;;5377962;26;20480;-67
2024/04/09 04:10:59;;;;;;;17.03;5.03;;;15.10;98.00;;;;;;5377928;26;20587;-67
2024/04/09 04:13:31;;;;;;;15.53;4.03;;;15.10;98.00;;;;;;5377763;26;20471;-67
2024/04/09 04:16:03;;;;;;;10.93;3.70;;;15.10;98.00;;;;;;5378062;26;20505;-67
2024/04/09 04:18:32;;;;;;;20.83;3.83;;;15.00;98.00;;;;;;5379601;26;20467;-67
2024/04/09 04:20:58;;;;;;;13.70;3.90;;;15.10;98.00;;;;;;5380523;26;21028;-67
2024/04/09 04:23:27;;;;;;;12.40;4.33;;;15.20;98.00;;;;;;5381311;26;20559;-67
2024/04/09 04:25:58;;;;;;;13.80;4.00;;;15.20;98.00;;;;;;5381425;26;20460;-67
2024/04/09 04:28:30;;;;;;;19.13;4.57;;;15.30;98.00;;;;;;5380850;26;20503;-67
2024/04/09 04:30:56;;;;;;;17.20;4.57;;;15.20;98.00;;;;;;5381260;26;20888;-67
2024/04/09 04:33:25;;;;;;;14.77;4.70;;;15.20;98.00;;;;;;5408578;26;20478;-67
2024/04/09 04:35:51;;;;;;;12.17;4.10;;;15.20;98.00;;;;;;5415068;26;20776;-67
2024/04/09 04:38:21;;;;;;;12.73;4.00;;;15.00;98.00;;;;;;5416520;26;20458;-67
2024/04/09 04:40:47;;;;;;;18.20;4.90;;;15.00;98.00;;;;;;5416651;26;20466;-67
2024/04/09 04:43:17;;;;;;;12.63;3.97;;;15.00;98.00;;;;;;5416681;26;20463;-67
2024/04/09 04:45:49;;;;;;;20.33;4.00;;;15.00;98.00;;;;;;5415717;26;20467;-67
2024/04/09 04:48:16;;;;;;;20.37;4.50;;;15.10;98.00;;;;;;5416521;26;20465;-67
2024/04/09 04:50:45;;;;;;;16.67;3.70;;;15.20;98.00;;;;;;5416075;26;20462;-67
2024/04/09 04:53:12;;;;;;;24.80;5.00;;;15.30;98.00;;;;;;5416292;26;20788;-67
2024/04/09 04:55:40;;;;;;;17.30;4.67;;;15.30;98.00;;;;;;5416181;26;20508;-67
2024/04/09 04:58:07;;;;;;;11.90;3.90;;;15.20;98.00;;;;;;5415772;26;20462;-67
2024/04/09 05:00:39;;;;;;;14.47;4.50;;;15.10;98.00;;;;;;5415500;26;20508;-67
2024/04/09 05:03:09;;;;;;;25.60;9.00;;;15.00;98.00;;;;;;5415454;26;20529;-67
2024/04/09 05:05:38;;;;;;;19.60;5.07;;;15.00;98.00;;;;;;5415570;26;20462;-67
2024/04/09 05:08:05;;;;;;;15.30;4.30;;;15.10;98.00;;;;;;5415481;26;20485;-67
2024/04/09 05:10:34;;;;;;;11.57;3.57;;;15.20;98.00;;;;;;5415766;26;20450;-67
2024/04/09 05:13:00;;;;;;;17.00;4.77;;;15.30;98.00;;;;;;5415292;26;20558;-67
2024/04/09 05:15:29;;;;;;;13.43;3.60;;;15.40;98.00;;;;;;5415711;26;20513;-67
2024/04/09 05:17:56;;;;;;;17.77;4.03;;;15.40;98.00;;;;;;5415282;26;20530;-67
2024/04/09 05:20:29;;;;;;;18.07;4.47;;;15.50;98.00;;;;;;5416931;26;20526;-67
2024/04/09 05:22:56;;;;;;;14.30;5.30;;;15.60;98.00;;;;;;5417086;26;20463;-67
2024/04/09 05:25:26;;;;;;;20.27;5.10;;;15.70;98.00;;;;;;5416616;26;20466;-67
2024/04/09 05:27:53;;;;;;;19.87;4.10;;;15.90;98.00;;;;;;5414927;26;20519;-67
2024/04/09 05:30:22;;;;;;;16.87;3.53;;;16.10;98.00;;;;;;5415522;26;21253;-67
2024/04/09 05:32:48;;;;;;;21.03;3.90;;;16.30;98.00;;;;;;5416581;26;20478;-67
2024/04/09 05:35:18;;;;;;;12.40;3.93;;;16.40;98.00;;;;;;5416699;26;20462;-67
2024/04/09 05:37:47;;;;;;;17.33;4.50;;;16.60;98.00;;;;;;5416599;26;20502;-67
2024/04/09 05:40:16;;;;;;;16.63;4.33;;;16.60;98.00;;;;;;5416968;26;20830;-67
2024/04/09 05:42:44;;;;;;;12.63;3.70;;;16.70;98.00;;;;;;5416590;26;20454;-67
2024/04/09 05:45:14;;;;;;;19.30;4.30;;;16.80;98.00;;;;;;5416627;26;20455;-67
2024/04/09 05:47:41;;;;;;;16.27;4.20;;;16.90;98.00;;;;;;5416498;26;20976;-67
2024/04/09 05:50:10;;;;;;;19.00;4.17;;;17.00;98.00;;;;;;5416481;26;21089;-67
2024/04/09 05:52:37;;;;;;;22.70;5.50;;;17.10;98.00;;;;;;5416666;26;20601;-67
2024/04/09 05:55:09;;;;;;;24.30;5.27;;;17.10;98.00;;;;;;5416506;26;20930;-67
2024/04/09 05:57:36;;;;;;;18.70;4.27;;;17.20;98.00;;;;;;5416290;26;20856;-70
2024/04/09 06:00:09;;;;;;;16.60;4.10;;;17.10;98.00;;;;;;5414881;26;21016;-71
2024/04/09 06:02:37;;;;;;;16.50;4.07;;;17.20;98.00;;;;;;5416032;26;20510;-70
2024/04/09 06:05:07;;;;;;;9.30;4.30;;;17.20;98.00;;;;;;5414488;26;20518;-71
2024/04/09 06:07:33;;;;;;;15.73;4.57;;;17.30;98.00;;;;;;5416169;26;20519;-72
2024/04/09 06:10:03;;;;;;;16.30;4.13;;;17.20;98.00;;;;;;5416038;26;20557;-72
2024/04/09 06:12:32;;;;;;;9.20;4.10;;;17.20;98.00;;;;;;5415461;26;20520;-71
2024/04/09 06:15:01;;;;;;;13.63;3.80;;;17.40;98.00;;;;;;5416031;26;20612;-70
2024/04/09 06:17:28;;;;;;;25.07;4.60;;;17.40;98.00;;;;;;5415658;26;20610;-69
2024/04/09 06:19:57;;;;;;;26.93;4.07;;;17.50;98.00;;;;;;5399149;26;21087;-69
2024/04/09 06:22:23;;;;;;;11.53;3.50;;;17.70;98.00;;;;;;5379840;26;20610;-70
2024/04/09 06:24:52;;;;;;;12.00;3.60;;;17.80;98.00;;;;;;5378905;26;20472;-70
2024/04/09 06:27:19;;;;;;;15.30;4.10;;;17.80;98.00;;;;;;5380214;26;20464;-70
2024/04/09 06:29:51;;;;;;;12.00;3.40;;;17.80;98.00;;;;;;5380117;26;21088;-70
2024/04/09 06:32:17;;;;;;;13.63;3.50;;;17.90;98.00;;;;;;5380408;26;20596;-70
2024/04/09 06:34:46;;;;;;;10.20;3.30;;;17.90;98.00;;;;;;5379932;26;20464;-70
2024/04/09 06:37:12;;;;;;;17.63;4.00;;;17.80;98.00;;;;;;5380158;26;20460;-69
2024/04/09 06:39:40;;;;;;;8.40;3.37;;;17.80;98.00;;;;;;5380409;26;20634;-70
2024/04/09 06:42:06;;;;;;;10.97;3.77;;;17.70;98.00;;;;;;5380442;26;20507;-69
2024/04/09 06:44:36;;;;;;;13.93;2.90;;;17.70;98.00;;;;;;5379928;26;20516;-70
2024/04/09 06:47:05;;;;;;;8.90;2.90;;;17.80;98.00;;;;;;5379073;26;20472;-69
2024/04/09 06:49:34;;;;;;;6.23;2.90;;;17.90;98.00;;;;;;5380232;26;20475;-69
2024/04/09 06:52:00;;;;;;;7.20;2.43;;;17.90;98.00;;;;;;5378377;26;20799;-70
2024/04/09 06:54:31;;;;;;;7.07;2.50;;;18.00;98.00;;;;;;5378567;26;20969;-71
2024/04/09 06:56:58;;;;;;;5.87;3.00;;;18.00;98.00;;;;;;5379860;26;20507;-70
2024/04/09 06:59:26;;;;;;;6.30;2.60;;;18.00;98.00;;;;;;5378090;26;20464;-70
2024/04/09 07:01:52;;;;;;;12.73;2.43;;;18.00;98.00;;;;;;5379824;26;20464;-71
2024/04/09 07:04:24;;;;;;;8.47;2.50;;;18.00;98.00;;;;;;5380013;26;20472;-69
2024/04/09 07:06:50;;;;;;;7.70;2.70;;;18.00;98.00;;;;;;5379717;26;20505;-70
2024/04/09 07:09:19;;;;;;;6.70;2.37;;;18.10;98.00;;;;;;5379280;26;20531;-70
2024/04/09 07:11:47;;;;;;;4.73;2.00;;;18.10;98.00;;;;;;5379771;26;21246;-70
2024/04/09 07:14:16;;;;;;;9.00;2.80;;;18.30;98.00;;;;;;5379522;26;20970;-70
2024/04/09 07:16:43;;;;;;;3.77;2.47;;;18.20;98.00;;;;;;5379768;26;20456;-69
2024/04/09 07:19:12;;;;;;;3.63;1.87;;;18.30;98.00;;;;;;5379815;26;20516;-70
2024/04/09 07:21:40;;;;;;;6.37;2.50;;;18.30;98.00;;;;;;5379552;26;20460;-70
2024/04/09 07:24:10;;;;;;;8.40;2.53;;;18.30;98.00;;;;;;5379818;26;20463;-69
2024/04/09 07:26:36;;;;;;;5.20;2.13;;;18.30;98.00;;;;;;5379528;26;20962;-70
2024/04/09 07:29:06;;;;;;;4.93;2.13;;;18.30;98.00;;;;;;5379669;26;20519;-70
2024/04/09 07:31:33;;;;;;;4.47;2.53;;;18.30;98.00;;;;;;5591165;21;20537;-70
2024/04/09 07:34:02;;;;;;;5.63;2.37;;;18.20;98.00;;;;;;5450462;26;20539;-70
2024/04/09 07:36:28;;;;;;;4.33;2.43;;;18.20;98.00;;;;;;5451160;26;20506;-70
2024/04/09 07:38:59;;;;;;;5.77;2.00;;;18.20;98.00;;;;;;5451043;26;20529;-71
2024/04/09 07:41:28;;;;;;;4.27;2.20;;;18.20;98.00;;;;;;5437809;26;20536;-71
2024/04/09 07:43:55;;;;;;;4.77;2.40;;;18.10;98.00;;;;;;5445479;26;20811;-70
2024/04/09 07:46:24;;;;;;;5.97;2.43;;;18.10;98.00;;;;;;5449994;26;20457;-71
2024/04/09 07:48:50;;;;;;;5.30;2.33;;;17.90;98.00;;;;;;5450420;26;20461;-72
2024/04/09 07:51:19;;;;;;;15.40;3.03;;;18.00;98.00;;;;;;5450514;26;20787;-69
2024/04/09 07:53:45;;;;;;;5.37;2.20;;;18.00;98.00;;;;;;5449140;26;20963;-69
2024/04/09 07:56:17;;;;;;;8.43;3.03;;;18.10;98.00;;;;;;5450320;26;20457;-70
2024/04/09 07:58:43;;;;;;;13.73;2.27;;;18.00;98.00;;;;;;5449824;26;20464;-69
2024/04/09 08:01:12;;;;;;;11.10;2.50;;;18.00;98.00;;;;;;5449755;26;20473;-65
2024/04/09 08:03:38;;;;;;;11.73;3.07;;;18.10;98.00;;;;;;5450025;26;21003;-65
2024/04/09 08:06:07;;;;;;;10.80;3.50;;;18.20;98.00;;;;;;5449959;26;20465;-65
2024/04/09 08:08:34;;;;;;;9.63;2.77;;;18.10;98.00;;;;;;5449737;26;20505;-65
2024/04/09 08:11:03;;;;;;;6.60;2.47;;;18.10;98.00;;;;;;5450227;26;20469;-65
2024/04/09 08:13:32;;;;;;;7.40;2.90;;;18.10;98.00;;;;;;5449797;26;20543;-65
2024/04/09 08:16:00;;;;;;;8.57;2.60;;;17.90;98.00;;;;;;5432676;26;20462;-65
2024/04/09 08:18:28;;;;;;;11.00;2.77;;;17.80;98.00;;;;;;5414013;26;20451;-65
2024/04/09 08:20:57;;;;;;;10.43;2.47;;;17.50;98.00;;;;;;5414127;26;20536;-64
2024/04/09 08:23:25;;;;;;;2.30;1.70;;;17.40;98.00;;;;;;5414035;26;20455;-64
2024/04/09 08:25:54;;;;;;;1.93;1.50;;;17.10;98.00;;;;;;5413274;26;20548;-65
2024/04/09 08:28:20;;;;;;;7.50;1.70;;;16.60;98.00;;;;;;5413846;26;20542;-65
2024/04/09 08:30:52;;;;;;;3.10;1.43;;;16.20;98.00;;;;;;5414077;26;20466;-65
2024/04/09 08:33:20;;;;;;;3.00;1.57;;;16.10;98.00;;;;;;5411257;26;20455;-64
2024/04/09 08:35:50;;;;;;;7.03;1.47;;;15.90;98.00;;;;;;5409234;26;20518;-64
2024/04/09 08:38:17;;;;;;;2.23;1.20;;;15.80;98.00;;;;;;5410514;26;20470;-67
2024/04/09 08:40:46;;;;;;;1.63;1.23;;;15.60;98.00;;;;;;5410686;26;20463;-68
2024/04/09 08:43:15;;;;;;;1.40;1.30;;;15.50;98.00;;;;;;5410732;26;20470;-67
2024/04/09 08:45:45;;;;;;;1.20;1.13;;;15.50;98.00;;;;;;5410963;26;20501;-67
2024/04/09 08:48:16;;;;;;;1.53;1.30;;;15.40;98.00;;;;;;5412330;26;20808;-67
2024/04/09 08:50:50;;;;;;;1.60;1.20;;;15.20;98.00;;;;;;5413297;26;20530;-67
2024/04/09 08:53:18;;;;;;;4.57;1.30;;;15.00;98.00;;;;;;5413448;26;21119;-67
2024/04/09 08:55:47;;;;;;;2.13;1.17;;;14.80;98.00;;;;;;5413599;26;20469;-68
2024/04/09 08:58:13;;;;;;;1.50;1.10;;;14.60;98.00;;;;;;5413469;26;20466;-67
2024/04/09 09:00:41;;;;;;;2.27;1.20;;;14.50;98.00;;;;;;5411969;26;20467;-67
2024/04/09 09:03:08;;;;;;;1.63;1.20;;;14.30;98.00;;;;;;5413286;26;20507;-67
2024/04/09 09:05:39;;;;;;;5.90;1.30;;;14.20;98.00;;;;;;5415263;26;20572;-67
2024/04/09 09:08:06;;;;;;;1.50;1.20;;;14.00;98.00;;;;;;5417123;26;20513;-67
2024/04/09 09:10:35;;;;;;;5.13;1.10;;;13.90;98.00;;;;;;5417238;26;20866;-67
2024/04/09 09:13:02;;;;;;;2.97;1.27;;;13.60;98.00;;;;;;5417164;26;20588;-67
2024/04/09 09:15:32;;;;;;;1.90;1.20;;;13.60;98.00;;;;;;5417537;26;20824;-67
2024/04/09 09:17:58;;;;;;;1.60;1.20;;;13.60;98.00;;;;;;5416627;26;21048;-67
2024/04/09 09:20:27;;;;;;;2.07;1.10;;;13.60;98.00;;;;;;5417404;26;20518;-67
2024/04/09 09:22:56;;;;;;;4.50;1.10;;;13.40;98.00;;;;;;5386803;26;20518;-67
2024/04/09 09:25:27;;;;;;;1.73;1.10;;;13.50;98.00;;;;;;5417234;26;20458;-70
2024/04/09 09:28:02;;;;;;;1.80;1.20;;;13.50;98.00;;;;;;5417111;26;20510;-70
2024/04/09 09:30:40;;;;;;;2.13;1.20;;;13.50;98.00;;;;;;5417590;26;20458;-70
2024/04/09 09:33:13;;;;;;;3.20;1.50;;;13.30;98.00;;;;;;5386204;26;20470;-67
2024/04/09 09:35:50;;;;;;;1.30;1.17;;;13.20;98.00;;;;;;5416962;26;20473;-69
2024/04/09 09:38:25;;;;;;;1.47;1.10;;;13.20;98.00;;;;;;5416728;26;20495;-70
2024/04/09 09:40:57;;;;;;;2.27;1.20;;;13.10;98.00;;;;;;5417081;26;20556;-70
2024/04/09 09:43:23;;;;;;;1.60;1.23;;;13.00;98.00;;;;;;5414845;26;20466;-68
2024/04/09 09:45:53;;;;;;;2.13;1.20;;;12.80;98.00;;;;;;5416598;26;20469;-70
2024/04/09 09:48:21;;;;;;;1.60;1.20;;;12.80;98.00;;;;;;5416223;26;20470;-68
2024/04/09 09:50:50;;;;;;;1.60;1.40;;;12.80;98.00;;;;;;5416026;26;20809;-69
2024/04/09 09:53:20;;;;;;;1.60;1.10;;;12.90;98.00;;;;;;5416640;26;20518;-69
2024/04/09 09:55:52;;;;;;;2.10;1.17;;;13.00;98.00;;;;;;5416240;26;20478;-69
2024/04/09 09:58:22;;;;;;;1.73;1.30;;;12.90;98.00;;;;;;5415974;26;20510;-69
2024/04/09 10:00:52;;;;;;;2.67;1.30;;;12.80;98.00;;;;;;5440851;26;20472;-70
2024/04/09 10:03:19;;;;;;;1.50;1.13;;;12.80;98.00;;;;;;5441210;26;20598;-68
2024/04/09 10:05:48;;;;;;;3.73;1.23;;;12.70;98.00;;;;;;5416207;26;20521;-69
2024/04/09 10:08:27;;;;;;;1.30;1.17;;;12.60;98.00;;;;;;5416067;26;20915;-68
2024/04/09 10:10:56;;;;;;;1.30;1.13;;;12.60;98.00;;;;;;5416125;26;20505;-69
2024/04/09 10:13:24;;;;;;;2.13;1.20;;;12.60;98.00;;;;;;5415030;26;20800;-69
2024/04/09 10:15:57;;;;;;;1.63;1.23;;;12.60;98.00;;;;;;5415629;26;21236;-68
2024/04/09 10:18:27;;;;;;;3.67;1.37;;;12.40;98.00;;;;;;5414552;26;20795;-69
2024/04/09 10:20:56;;;;;;;4.07;1.37;;;12.40;98.00;;;;;;5415955;26;20510;-68
2024/04/09 10:23:25;;;;;;;2.40;1.30;;;12.40;98.00;;;;;;5415967;26;20508;-70
2024/04/09 10:25:59;;;;;;;1.93;1.10;;;12.50;98.00;;;;;;5420470;26;20953;-69
2024/04/09 10:28:28;;;;;;;2.30;1.20;;;12.50;98.00;;;;;;5431173;26;20540;-69
2024/04/09 10:31:01;;;;;;;1.97;1.40;;;12.50;98.00;;;;;;5433556;26;20721;-69
2024/04/09 10:33:29;;;;;;;3.20;1.33;;;12.60;98.00;;;;;;5449722;26;20460;-68
2024/04/09 10:35:59;;;;;;;2.27;1.10;;;12.70;98.00;;;;;;5449884;26;20461;-69
2024/04/09 10:38:29;;;;;;;1.20;1.10;;;12.70;98.00;;;;;;5451194;26;20507;-69
2024/04/09 10:41:00;;;;;;;2.30;1.50;;;12.70;98.00;;;;;;5451604;26;21104;-69
2024/04/09 10:43:28;;;;;;;2.40;1.47;;;12.60;98.00;;;;;;5451736;26;20508;-68
2024/04/09 10:45:57;;;;;;;1.77;1.30;;;12.60;98.00;;;;;;5443636;26;20466;-68
2024/04/09 10:48:24;;;;;;;2.80;1.30;;;12.70;98.00;;;;;;5415606;26;20465;-69
2024/04/09 10:50:53;;;;;;;1.80;1.20;;;12.80;98.00;;;;;;5415731;26;20551;-69
2024/04/09 10:53:20;;;;;;;1.20;1.20;;;12.70;98.00;;;;;;5415522;26;20525;-68
2024/04/09 10:55:51;;;;;;;2.20;1.33;;;12.70;98.00;;;;;;5413986;26;20524;-69
2024/04/09 10:58:17;;;;;;;2.33;1.27;;;12.80;98.00;;;;;;5415337;26;20575;-69
2024/04/09 11:00:51;;;;;;;2.10;1.37;;;12.90;98.00;;;;;;5415283;26;20530;-69
2024/04/09 11:03:19;;;;;;;2.10;1.23;;;12.90;98.00;;;;;;5415763;26;20446;-69
2024/04/09 11:05:51;;;;;;;1.53;1.40;;;12.80;98.00;;;;;;5415698;26;20510;-69
2024/04/09 11:08:25;;;;;;;2.70;1.20;;;12.70;98.00;;;;;;5415621;26;20505;-68
2024/04/09 11:10:57;;;;;;;2.43;1.30;;;12.70;98.00;;;;;;5415588;26;21071;-68
2024/04/09 11:13:24;;;;;;;2.23;1.40;;;12.60;98.00;;;;;;5415335;26;20503;-69
2024/04/09 11:15:53;;;;;;;2.13;1.30;;;12.50;98.00;;;;;;5413623;26;20850;-69
2024/04/09 11:18:24;;;;;;;1.97;1.33;;;12.50;98.00;;;;;;5413456;26;21035;-69
2024/04/09 11:20:55;;;;;;;3.87;1.33;;;12.60;98.00;;;;;;5414913;26;20641;-67
2024/04/09 11:23:25;;;;;;;1.83;1.53;;;12.40;98.00;;;;;;5415074;26;20511;-68
2024/04/09 11:25:55;;;;;;;5.90;1.53;;;12.40;98.00;;;;;;5414917;26;20798;-69
2024/04/09 11:28:25;;;;;;;1.30;1.20;;;12.10;98.00;;;;;;5413778;26;20513;-69
2024/04/09 11:30:55;;;;;;;2.37;1.57;;;12.10;98.00;;;;;;5414866;26;20461;-69
2024/04/09 11:33:26;;;;;;;3.83;1.60;;;12.10;98.00;;;;;;5415171;26;20468;-68
2024/04/09 11:35:53;;;;;;;1.50;1.30;;;12.10;98.00;;;;;;5414980;26;20460;-67
2024/04/09 11:38:22;;;;;;;1.77;1.40;;;12.20;98.00;;;;;;5414576;26;20470;-69
2024/04/09 11:40:49;;;;;;;3.80;1.30;;;12.10;98.00;;;;;;5414708;26;20499;-68
2024/04/09 11:43:23;;;;;;;1.90;1.23;;;12.00;98.00;;;;;;5414750;26;20986;-69
2024/04/09 11:45:50;;;;;;;2.30;1.50;;;12.10;98.00;;;;;;5414809;26;20462;-69
2024/04/09 11:48:19;;;;;;;2.30;1.50;;;12.30;98.00;;;;;;5414864;26;20458;-69
2024/04/09 11:50:45;;;;;;;3.13;1.30;;;12.40;98.00;;;;;;5414610;26;20803;-68
2024/04/09 11:53:14;;;;;;;2.13;1.40;;;12.30;98.00;;;;;;5414689;26;20560;-67
2024/04/09 11:55:41;;;;;;;4.07;1.60;;;12.20;98.00;;;;;;5412859;26;20457;-68
2024/04/09 11:58:09;;;;;;;1.90;1.43;;;12.10;98.00;;;;;;5414340;26;20784;-69
2024/04/09 12:00:38;;;;;;;2.37;1.50;;;12.10;98.00;;;;;;5412965;26;21050;-69
2024/04/09 12:03:08;;;;;;;1.33;1.30;;;12.10;98.00;;;;;;5414258;26;20614;-69
2024/04/09 12:05:34;;;;;;;1.30;1.17;;;12.20;98.00;;;;;;5412904;26;20794;-68
2024/04/09 12:08:03;;;;;;;1.33;1.20;;;12.30;98.00;;;;;;5414202;26;20684;-69
2024/04/09 12:10:29;;;;;;;1.83;1.30;;;12.20;98.00;;;;;;5414355;26;20469;-69
2024/04/09 12:12:59;;;;;;;1.93;1.23;;;12.20;98.00;;;;;;5413928;26;20901;-69
2024/04/09 12:15:25;;;;;;;1.60;1.30;;;12.10;98.00;;;;;;5412797;26;20463;-70
2024/04/09 12:17:57;;;;;;;2.03;1.20;;;12.10;98.00;;;;;;5413972;26;20507;-69
2024/04/09 12:20:23;;;;;;;1.40;1.30;;;12.10;98.00;;;;;;5414411;26;20464;-69
2024/04/09 12:22:52;;;;;;;1.83;1.40;;;12.20;98.00;;;;;;5413976;26;20513;-68
2024/04/09 12:25:19;;;;;;;1.30;1.20;;;12.20;98.00;;;;;;5413952;26;20515;-70
2024/04/09 12:27:48;;;;;;;1.80;1.40;;;12.20;98.00;;;;;;5412099;26;20525;-69
2024/04/09 12:30:15;;;;;;;1.90;1.33;;;12.20;98.00;;;;;;5414096;26;20474;-70
2024/04/09 12:32:45;;;;;;;2.80;1.30;;;12.20;98.00;;;;;;5412069;26;21072;-68
2024/04/09 12:35:21;;;;;;;4.57;1.40;;;12.10;98.00;;;;;;5413913;26;20518;-68
2024/04/09 12:37:50;;;;;;;1.63;1.20;;;12.00;98.00;;;;;;5413891;26;20507;-69
2024/04/09 12:40:16;;;;;;;1.93;1.10;;;12.00;98.00;;;;;;5417086;26;20472;-67
2024/04/09 12:42:45;;;;;;;1.30;1.20;;;11.90;98.00;;;;;;5417666;26;20524;-71
2024/04/09 12:45:11;;;;;;;1.30;1.10;;;11.80;98.00;;;;;;5417433;26;20499;-69
2024/04/09 12:47:40;;;;;;;1.40;1.20;;;11.60;98.00;;;;;;5417993;26;20504;-69